createdAt,value
2023-03-22T00:01:55.735Z,9.70
2023-03-22T00:06:57.481Z,10.13
2023-03-22T00:11:59.216Z,11.57
2023-03-22T00:17:00.926Z,13.50
2023-03-22T00:22:06.142Z,11.98
2023-03-22T00:27:08.699Z,6.30
2023-03-22T00:32:10.613Z,7.28
2023-03-22T00:37:12.481Z,8.73
2023-03-22T00:42:14.269Z,7.65
2023-03-22T00:47:16.170Z,6.93
2023-03-22T00:52:18.096Z,8.40
2023-03-22T00:57:20.588Z,6.78
2023-03-22T01:02:29.851Z,11.70
2023-03-22T01:07:32.532Z,10.05
2023-03-22T01:12:38.753Z,11.43
2023-03-22T01:17:40.726Z,10.15
2023-03-22T01:22:42.466Z,9.30
2023-03-22T01:27:44.732Z,10.27
2023-03-22T01:32:46.551Z,9.00
2023-03-22T01:37:48.350Z,11.00
2023-03-22T01:42:53.513Z,7.80
2023-03-22T01:48:01.566Z,10.45
2023-03-22T01:53:08.811Z,8.38
2023-03-22T01:58:12.306Z,8.85
2023-03-22T02:03:51.059Z,9.70
2023-03-22T02:08:58.050Z,8.73
2023-03-22T02:14:17.719Z,8.77
2023-03-22T02:19:59.702Z,12.02
2023-03-22T02:25:18.967Z,7.90
2023-03-22T02:30:50.027Z,8.55
2023-03-22T02:36:01.380Z,8.52
2023-03-22T02:41:27.611Z,6.57
2023-03-22T02:46:46.534Z,6.10
2023-03-22T02:51:52.785Z,11.90
2023-03-22T02:57:03.005Z,10.73
2023-03-22T03:02:09.194Z,7.15
2023-03-22T03:07:15.419Z,10.98
2023-03-22T03:12:23.447Z,8.80
2023-03-22T03:17:57.491Z,7.25
2023-03-22T03:23:28.409Z,9.68
2023-03-22T03:28:39.063Z,6.20
2023-03-22T03:34:19.981Z,8.75
2023-03-22T03:39:24.160Z,10.05
2023-03-22T03:44:27.846Z,10.48
2023-03-22T03:49:29.722Z,10.27
2023-03-22T03:54:31.475Z,10.30
2023-03-22T03:59:33.426Z,9.82
2023-03-22T04:04:41.331Z,9.60
2023-03-22T04:09:43.544Z,8.55
2023-03-22T04:14:56.479Z,9.75
2023-03-22T04:20:05.381Z,8.80
2023-03-22T04:25:11.775Z,9.18
2023-03-22T04:30:21.579Z,11.13
2023-03-22T04:35:50.414Z,12.02
2023-03-22T04:40:52.514Z,11.95
2023-03-22T04:46:02.848Z,11.85
2023-03-22T04:51:12.725Z,13.90
2023-03-22T04:56:23.743Z,12.48
2023-03-22T05:01:27.142Z,15.83
2023-03-22T05:06:38.903Z,12.13
2023-03-22T05:11:47.240Z,14.63
2023-03-22T05:16:58.868Z,14.23
2023-03-22T05:22:02.277Z,15.63
2023-03-22T05:27:31.517Z,11.68
2023-03-22T05:32:57.663Z,12.87
2023-03-22T05:37:59.738Z,10.68
2023-03-22T05:48:07.111Z,14.68
2023-03-22T05:53:11.650Z,12.67
2023-03-22T05:58:35.043Z,11.82
2023-03-22T06:03:38.854Z,15.38
2023-03-22T06:08:48.313Z,14.77
2023-03-22T06:13:50.343Z,13.50
2023-03-22T06:18:53.660Z,13.35
2023-03-22T06:23:56.193Z,12.70
2023-03-22T06:28:59.093Z,12.52
2023-03-22T06:34:01.210Z,12.05
2023-03-22T06:39:10.714Z,12.20
2023-03-22T06:44:14.104Z,11.63
2023-03-22T06:49:40.601Z,13.48
2023-03-22T06:54:43.736Z,13.80
2023-03-22T06:59:45.770Z,14.50
2023-03-22T07:04:47.693Z,14.63
2023-03-22T07:09:49.997Z,12.23
2023-03-22T07:14:52.090Z,11.77
2023-03-22T07:20:17.957Z,11.65
2023-03-22T07:25:20.332Z,12.00
2023-03-22T07:30:26.291Z,15.25
2023-03-22T07:35:28.406Z,11.38
2023-03-22T07:40:30.970Z,10.45
2023-03-22T07:45:35.149Z,8.70
2023-03-22T07:50:56.421Z,10.27
2023-03-22T07:55:59.911Z,13.25
2023-03-22T08:01:09.055Z,8.80
2023-03-22T08:06:40.328Z,8.50
2023-03-22T08:11:42.225Z,6.80
2023-03-22T08:16:44.522Z,6.75
2023-03-22T08:21:47.242Z,6.50
2023-03-22T08:27:02.858Z,7.82
2023-03-22T08:32:17.448Z,6.40
2023-03-22T08:37:22.117Z,5.47
2023-03-22T08:42:24.044Z,5.97
2023-03-22T08:47:26.424Z,6.28
2023-03-22T08:52:33.367Z,5.15
2023-03-22T08:57:42.315Z,6.40
2023-03-22T09:03:03.524Z,3.60
2023-03-22T09:08:06.893Z,4.57
2023-03-22T09:13:16.777Z,4.63
2023-03-22T09:18:25.944Z,4.22
2023-03-22T09:23:31.856Z,3.55
2023-03-22T09:28:36.433Z,5.60
2023-03-22T09:33:43.320Z,4.25
2023-03-22T09:38:46.619Z,3.25
2023-03-22T09:43:53.465Z,4.68
2023-03-22T09:48:57.039Z,2.88
2023-03-22T09:53:58.992Z,5.00
2023-03-22T09:59:23.138Z,3.53
2023-03-22T10:04:41.645Z,3.35
2023-03-22T10:09:59.160Z,1.88
2023-03-22T10:15:10.417Z,2.88
2023-03-22T10:20:22.080Z,1.60
2023-03-22T10:25:33.443Z,4.22
2023-03-22T10:30:38.937Z,3.95
2023-03-22T10:35:43.591Z,3.85
2023-03-22T10:40:47.494Z,2.92
2023-03-22T10:45:52.592Z,2.92
2023-03-22T10:50:56.003Z,1.35
2023-03-22T10:55:57.995Z,3.83
2023-03-22T11:01:14.734Z,3.20
2023-03-22T11:06:23.634Z,2.20
2023-03-22T11:11:25.522Z,3.17
2023-03-22T11:16:29.329Z,3.90
2023-03-22T11:21:33.449Z,3.20
2023-03-22T11:26:40.635Z,3.55
2023-03-22T11:32:00.692Z,1.50
2023-03-22T11:37:08.039Z,3.42
2023-03-22T11:42:29.122Z,3.42
2023-03-22T11:47:49.706Z,2.22
2023-03-22T11:52:53.923Z,3.45
2023-03-22T11:57:56.480Z,3.70
2023-03-22T12:03:04.559Z,2.22
2023-03-22T12:08:45.020Z,3.92
2023-03-22T12:13:51.469Z,2.38
2023-03-22T12:19:23.097Z,3.22
2023-03-22T12:24:31.208Z,3.42
2023-03-22T12:29:34.677Z,3.67
2023-03-22T12:34:41.000Z,4.28
2023-03-22T12:40:05.772Z,3.47
2023-03-22T12:45:29.046Z,5.15
2023-03-22T12:50:43.533Z,5.20
2023-03-22T12:55:47.194Z,2.15
2023-03-22T13:00:54.834Z,3.22
2023-03-22T13:06:04.922Z,2.83
2023-03-22T13:11:06.744Z,2.00
2023-03-22T13:16:08.770Z,3.58
2023-03-22T13:21:22.313Z,2.30
2023-03-22T13:26:30.614Z,2.23
2023-03-22T13:31:45.369Z,1.60
2023-03-22T13:36:56.306Z,2.75
2023-03-22T13:42:09.326Z,1.77
2023-03-22T13:47:32.014Z,7.45
2023-03-22T13:52:37.928Z,1.38
2023-03-22T13:57:47.609Z,2.08
2023-03-22T14:02:51.079Z,1.95
2023-03-22T14:07:58.062Z,2.58
2023-03-22T14:13:11.588Z,5.03
2023-03-22T14:18:25.726Z,3.40
